Time;durP1;ratioP1;P1;durP2;ratioP2;P2;SDS_P1;SDS_P2;PMS_P1;PMS_P2;Temp;Humidity;BMP_temperature;BMP_pressure;BME280_temperature;BME280_humidity;BME280_pressure;Samples;Min_cycle;Max_cycle;Signal;HPM_P1;HPM_P2
2022/08/01 00:01:17;;;;;;;5.83;4.63;;;21.90;1.00;;;;;;5116913;28;20447;-74
2022/08/01 00:03:45;;;;;;;5.70;5.20;;;22.00;1.00;;;;;;5116455;28;20443;-74
2022/08/01 00:06:14;;;;;;;6.17;5.60;;;22.00;1.00;;;;;;5117367;22;20496;-81
2022/08/01 00:08:40;;;;;;;5.70;5.20;;;22.10;1.00;;;;;;5081418;28;20936;-81
2022/08/01 00:11:12;;;;;;;5.80;5.30;;;21.90;1.00;;;;;;5079127;28;20446;-80
2022/08/01 00:13:46;;;;;;;7.20;6.60;;;21.90;1.00;;;;;;5078147;28;20448;-81
2022/08/01 00:16:15;;;;;;;6.70;6.20;;;;;;;;;;5078274;28;20518;-81
2022/08/01 00:18:42;;;;;;;5.00;4.50;;;;;;;;;;5078840;28;20865;-80
2022/08/01 00:21:14;;;;;;;5.90;5.40;;;21.60;99.90;;;;;;5078704;28;20876;-81
2022/08/01 00:23:45;;;;;;;6.20;5.60;;;21.80;99.90;;;;;;5078127;28;20916;-81
2022/08/01 00:26:18;;;;;;;6.43;5.83;;;21.80;99.90;;;;;;5078195;28;21046;-80
2022/08/01 00:28:58;;;;;;;5.67;5.20;;;21.60;1.00;;;;;;5079770;28;20425;-80
2022/08/01 00:31:28;;;;;;;7.00;5.40;;;;;;;;;;5079471;28;20475;-80
2022/08/01 00:34:03;;;;;;;6.03;5.53;;;21.70;1.00;;;;;;5082778;28;20421;-79
2022/08/01 00:39:29;;;;;;;6.47;5.87;;;21.40;99.90;;;;;;5079034;28;20815;-80
2022/08/01 00:42:01;;;;;;;5.50;5.10;;;21.30;1.00;;;;;;5078860;28;20448;-80
2022/08/01 00:44:32;;;;;;;6.03;5.63;;;;;;;;;;5078617;28;20509;-81
2022/08/01 00:47:16;;;;;;;5.70;5.27;;;21.40;99.90;;;;;;5077680;28;20464;-81
2022/08/01 00:50:11;;;;;;;6.60;6.00;;;21.30;99.90;;;;;;5081480;28;20528;-80
2022/08/01 00:52:53;;;;;;;6.77;5.77;;;20.40;1.00;;;;;;5075909;28;20514;-80
2022/08/01 00:55:21;;;;;;;5.90;5.40;;;21.20;1.00;;;;;;5077807;28;20464;-81
2022/08/01 00:58:10;;;;;;;6.57;5.80;;;20.60;1.00;;;;;;5077446;28;20805;-80
2022/08/01 01:00:57;;;;;;;;;;;;;;;;;;;;;
2022/08/01 01:03:26;;;;;;;6.20;5.60;;;;;;;;;;5077279;28;20882;-81
2022/08/01 01:06:09;;;;;;;6.27;5.77;;;21.30;99.90;;;;;;5078128;28;20468;-80
2022/08/01 01:08:56;;;;;;;6.63;6.10;;;21.20;99.90;;;;;;5080121;28;20433;-80
2022/08/01 01:11:29;;;;;;;5.90;5.40;;;21.60;99.90;;;;;;5079105;28;20429;-80
2022/08/01 01:14:02;;;;;;;6.13;5.63;;;21.20;99.90;;;;;;5077710;28;20434;-80
2022/08/01 01:16:33;;;;;;;6.37;5.80;;;21.00;1.00;;;;;;5078109;28;20491;-80
2022/08/01 01:19:03;;;;;;;7.07;6.50;;;20.90;1.00;;;;;;5077547;28;20433;-80
2022/08/01 01:21:55;;;;;;;8.27;5.60;;;21.00;1.00;;;;;;5077337;28;20554;-80
2022/08/01 01:24:33;;;;;;;6.27;5.70;;;20.90;1.00;;;;;;5078032;28;20520;-80
2022/08/01 01:27:13;;;;;;;7.13;6.47;;;21.10;1.00;;;;;;5077811;28;20518;-80
2022/08/01 01:29:45;;;;;;;6.57;5.97;;;21.10;1.00;;;;;;5077716;28;20451;-80
2022/08/01 01:32:20;;;;;;;6.17;5.40;;;21.20;1.00;;;;;;5077811;28;20428;-79
2022/08/01 01:34:51;;;;;;;6.10;5.20;;;21.10;1.00;;;;;;5077321;28;20421;-79
2022/08/01 01:37:21;;;;;;;6.43;5.80;;;21.10;1.00;;;;;;5088691;28;20535;-79
2022/08/01 01:39:50;;;;;;;6.43;5.83;;;21.10;1.00;;;;;;5081943;28;20449;-78
2022/08/01 01:42:18;;;;;;;6.57;5.97;;;21.20;1.00;;;;;;5084023;28;20475;-79
2022/08/01 01:44:47;;;;;;;6.70;5.93;;;21.10;1.00;;;;;;5083889;28;20452;-79
2022/08/01 01:47:15;;;;;;;6.60;6.13;;;21.20;1.00;;;;;;5083381;28;20483;-80
2022/08/01 01:49:44;;;;;;;6.40;5.80;;;21.20;1.00;;;;;;5081174;28;20437;-79
2022/08/01 01:52:14;;;;;;;6.23;5.50;;;21.20;1.00;;;;;;5079640;28;20948;-80
2022/08/01 01:54:46;;;;;;;5.87;5.47;;;21.20;1.00;;;;;;5079714;28;20846;-80
2022/08/01 01:57:15;;;;;;;6.47;6.07;;;21.20;1.00;;;;;;5078612;28;20495;-80
2022/08/01 01:59:43;;;;;;;5.47;5.07;;;21.00;1.00;;;;;;5077185;28;20456;-81
2022/08/01 02:02:12;;;;;;;6.00;5.60;;;21.10;1.00;;;;;;5077654;28;20948;-81
2022/08/01 02:04:43;;;;;;;6.43;5.93;;;21.10;1.00;;;;;;5076568;28;20453;-80
2022/08/01 02:07:12;;;;;;;6.43;5.83;;;21.10;1.00;;;;;;5076300;28;20476;-80
2022/08/01 02:09:42;;;;;;;6.00;5.60;;;21.00;1.00;;;;;;5076005;28;20544;-79
2022/08/01 02:12:11;;;;;;;5.77;5.27;;;21.00;1.00;;;;;;5077740;28;20801;-81
2022/08/01 02:14:39;;;;;;;6.53;6.03;;;21.00;1.00;;;;;;5076089;28;20445;-80
2022/08/01 02:17:07;;;;;;;5.70;5.20;;;21.00;1.00;;;;;;5076356;28;20523;-80
2022/08/01 02:19:35;;;;;;;6.43;6.03;;;21.00;1.00;;;;;;5076763;28;20451;-80
2022/08/01 02:22:06;;;;;;;6.30;5.90;;;21.00;1.00;;;;;;5078600;28;20449;-80
2022/08/01 02:24:38;;;;;;;6.80;6.20;;;20.80;1.00;;;;;;5077235;28;20444;-81
2022/08/01 02:27:08;;;;;;;14.93;12.20;;;20.60;30.50;;;;;;5076783;28;20472;-81
2022/08/01 02:29:40;;;;;;;7.33;6.60;;;20.60;20.70;;;;;;5089370;28;20455;-80
2022/08/01 02:32:09;;;;;;;6.67;6.20;;;20.50;51.40;;;;;;5098835;28;20409;-81
2022/08/01 02:34:37;;;;;;;6.90;6.40;;;20.60;43.00;;;;;;5098703;28;20462;-79
2022/08/01 02:37:06;;;;;;;8.07;7.37;;;20.60;57.80;;;;;;5097115;28;20476;-80
2022/08/01 02:39:35;;;;;;;6.50;6.00;;;20.50;75.50;;;;;;5098582;28;20452;-80
2022/08/01 02:42:07;;;;;;;7.27;6.60;;;20.40;98.20;;;;;;5097723;28;20452;-81
2022/08/01 02:44:38;;;;;;;9.27;7.00;;;20.40;99.90;;;;;;5098305;28;20420;-80
2022/08/01 02:47:06;;;;;;;6.17;5.67;;;20.40;99.90;;;;;;5093962;28;20469;-81
2022/08/01 02:49:36;;;;;;;7.20;6.57;;;20.40;99.90;;;;;;5079374;28;20457;-81
2022/08/01 02:52:08;;;;;;;7.47;6.87;;;20.40;99.90;;;;;;5078542;28;20448;-80
2022/08/01 02:54:36;;;;;;;7.10;6.40;;;20.30;99.90;;;;;;5077209;28;20437;-81
2022/08/01 02:57:05;;;;;;;7.63;6.90;;;20.40;99.90;;;;;;5078142;28;20484;-79
2022/08/01 02:59:34;;;;;;;7.60;6.77;;;20.40;99.90;;;;;;5084159;28;20467;-79
2022/08/01 03:02:02;;;;;;;6.37;5.87;;;20.30;99.90;;;;;;5080031;28;20453;-80
2022/08/01 03:04:29;;;;;;;8.27;7.47;;;20.30;99.90;;;;;;5076674;28;20452;-80
2022/08/01 03:06:58;;;;;;;7.83;6.20;;;20.50;99.90;;;;;;5075651;28;20480;-81
2022/08/01 03:09:27;;;;;;;6.93;6.33;;;20.40;99.90;;;;;;5075862;28;20539;-81
2022/08/01 03:11:58;;;;;;;7.13;6.60;;;20.40;99.90;;;;;;5075710;28;20506;-80
2022/08/01 03:14:26;;;;;;;6.43;5.90;;;20.40;99.90;;;;;;5076417;28;20456;-79
2022/08/01 03:16:53;;;;;;;7.10;6.40;;;20.30;99.90;;;;;;5075796;28;20488;-80
2022/08/01 03:19:23;;;;;;;7.43;6.83;;;20.40;99.90;;;;;;5075828;28;20452;-80
2022/08/01 03:21:52;;;;;;;6.53;6.03;;;20.40;99.90;;;;;;5075898;28;20444;-79
2022/08/01 03:24:20;;;;;;;6.40;5.97;;;20.40;99.90;;;;;;5075494;28;20448;-80
2022/08/01 03:26:49;;;;;;;6.80;6.30;;;20.40;99.90;;;;;;5075601;28;20491;-80
2022/08/01 03:29:20;;;;;;;6.47;5.90;;;20.20;99.90;;;;;;5075419;28;20939;-80
2022/08/01 03:31:49;;;;;;;7.33;6.67;;;20.20;99.90;;;;;;5075524;28;20429;-80
2022/08/01 03:34:17;;;;;;;6.73;6.10;;;20.20;99.90;;;;;;5075403;28;20472;-79
2022/08/01 03:36:48;;;;;;;6.80;6.30;;;20.30;99.90;;;;;;5075144;28;20480;-79
2022/08/01 03:39:17;;;;;;;7.10;6.60;;;20.10;99.90;;;;;;5077665;28;20452;-80
2022/08/01 03:41:51;;;;;;;6.93;6.23;;;20.10;99.90;;;;;;5079561;28;20444;-80
2022/08/01 03:44:23;;;;;;;6.83;6.23;;;20.10;99.90;;;;;;5076366;28;20433;-81
2022/08/01 03:46:57;;;;;;;7.00;6.50;;;20.10;99.90;;;;;;5075682;28;20465;-80
2022/08/01 03:49:29;;;;;;;7.43;6.73;;;20.10;99.90;;;;;;5075706;28;20433;-80
2022/08/01 03:51:57;;;;;;;6.67;6.07;;;20.30;99.90;;;;;;5075926;28;20820;-80
2022/08/01 03:54:26;;;;;;;7.90;7.20;;;20.30;99.90;;;;;;5075693;28;20455;-80
2022/08/01 03:56:55;;;;;;;7.67;7.03;;;20.10;99.90;;;;;;5076624;28;20492;-80
2022/08/01 03:59:22;;;;;;;6.17;5.60;;;20.10;99.90;;;;;;5079815;28;20456;-81
2022/08/01 04:01:49;;;;;;;10.40;7.67;;;20.20;99.90;;;;;;5079632;28;20490;-80
2022/08/01 04:04:16;;;;;;;7.70;7.10;;;20.30;99.90;;;;;;5078481;28;20817;-80
2022/08/01 04:06:44;;;;;;;10.63;9.60;;;20.30;99.90;;;;;;5078502;28;20468;-79
2022/08/01 04:09:11;;;;;;;8.70;7.90;;;20.40;99.90;;;;;;5078990;28;20491;-80
2022/08/01 04:11:38;;;;;;;12.60;10.63;;;20.40;99.90;;;;;;5078378;28;20449;-80
2022/08/01 04:14:07;;;;;;;8.33;7.63;;;20.40;99.90;;;;;;5079506;28;20452;-79
2022/08/01 04:16:34;;;;;;;9.37;8.40;;;20.40;99.90;;;;;;5079541;28;20481;-78
2022/08/01 04:19:01;;;;;;;13.87;12.47;;;20.40;99.90;;;;;;5079154;28;20968;-79
2022/08/01 04:21:30;;;;;;;11.87;10.73;;;20.50;99.90;;;;;;5079071;28;20935;-81
2022/08/01 04:24:00;;;;;;;8.80;7.83;;;20.40;99.90;;;;;;5078683;28;20864;-80
2022/08/01 04:26:29;;;;;;;10.37;8.63;;;20.40;99.90;;;;;;5078377;28;20464;-79
2022/08/01 04:28:56;;;;;;;30.33;25.07;;;20.40;99.90;;;;;;5079617;28;20451;-81
2022/08/01 04:31:26;;;;;;;13.07;11.77;;;20.50;99.90;;;;;;5079470;28;20928;-81
2022/08/01 04:33:55;;;;;;;8.73;7.90;;;20.50;99.90;;;;;;5079808;28;20535;-78
2022/08/01 04:36:24;;;;;;;12.33;10.80;;;20.40;99.90;;;;;;5080008;28;20488;-79
2022/08/01 04:38:56;;;;;;;43.47;30.73;;;20.40;99.90;;;;;;5078509;28;20475;-80
2022/08/01 04:41:24;;;;;;;26.53;20.60;;;20.30;99.90;;;;;;5078683;28;20439;-80
2022/08/01 04:43:52;;;;;;;15.57;13.90;;;20.50;99.90;;;;;;5078752;28;20476;-80
2022/08/01 04:46:19;;;;;;;8.70;7.90;;;20.40;99.90;;;;;;5078771;28;20464;-80
2022/08/01 04:48:49;;;;;;;10.90;9.20;;;20.40;99.90;;;;;;5078620;28;20468;-80
2022/08/01 04:51:17;;;;;;;12.17;9.40;;;20.50;99.90;;;;;;5080291;28;20524;-80
2022/08/01 04:53:45;;;;;;;17.53;14.23;;;20.40;99.90;;;;;;5079381;28;20882;-80
2022/08/01 04:56:13;;;;;;;12.77;10.40;;;20.40;99.90;;;;;;5078464;28;20485;-80
2022/08/01 04:58:40;;;;;;;17.30;13.33;;;20.40;99.90;;;;;;5078967;28;20448;-80
2022/08/01 05:01:07;;;;;;;9.93;8.93;;;20.40;99.90;;;;;;5078630;28;20540;-80
2022/08/01 05:03:34;;;;;;;13.10;11.67;;;20.40;99.90;;;;;;5078614;28;20453;-79
2022/08/01 05:06:03;;;;;;;11.13;10.13;;;20.40;99.90;;;;;;5081482;28;20481;-80
2022/08/01 05:08:29;;;;;;;13.20;12.00;;;20.30;99.90;;;;;;5078190;28;20457;-80
2022/08/01 05:10:56;;;;;;;30.80;23.37;;;20.30;99.90;;;;;;5079885;28;20441;-79
2022/08/01 05:13:23;;;;;;;11.33;10.13;;;20.30;99.90;;;;;;5078333;28;20445;-80
2022/08/01 05:15:50;;;;;;;12.70;11.40;;;20.30;99.90;;;;;;5080243;28;20824;-79
2022/08/01 05:18:16;;;;;;;12.00;10.90;;;20.30;99.90;;;;;;5078652;28;20452;-80
2022/08/01 05:20:43;;;;;;;11.93;9.97;;;20.30;99.90;;;;;;5080318;28;20444;-79
2022/08/01 05:23:12;;;;;;;10.00;9.00;;;20.30;99.90;;;;;;5082576;28;20445;-79
2022/08/01 05:25:39;;;;;;;11.20;10.10;;;20.20;99.90;;;;;;5086051;28;20477;-81
2022/08/01 05:28:05;;;;;;;12.27;10.30;;;20.40;99.90;;;;;;5087482;28;20506;-81
2022/08/01 05:30:32;;;;;;;12.80;9.60;;;20.30;99.90;;;;;;5088134;28;20445;-80
2022/08/01 05:32:59;;;;;;;12.07;9.40;;;20.40;99.90;;;;;;5090240;28;20469;-81
2022/08/01 05:35:26;;;;;;;10.53;9.50;;;20.30;99.90;;;;;;5090155;28;20464;-81
2022/08/01 05:37:52;;;;;;;11.10;10.00;;;20.40;99.90;;;;;;5088266;28;20488;-81
2022/08/01 05:40:20;;;;;;;9.37;8.50;;;20.40;99.90;;;;;;5087020;28;20494;-81
2022/08/01 05:42:47;;;;;;;10.50;9.50;;;20.30;99.90;;;;;;5083926;28;20451;-80
2022/08/01 05:45:14;;;;;;;8.70;7.80;;;20.30;99.90;;;;;;5082370;28;20456;-80
2022/08/01 05:47:41;;;;;;;10.33;9.33;;;20.30;99.90;;;;;;5082089;28;20455;-80
2022/08/01 05:50:09;;;;;;;8.77;7.97;;;20.40;99.90;;;;;;5082013;28;20451;-81
2022/08/01 05:52:36;;;;;;;10.27;9.27;;;20.30;99.90;;;;;;5082837;28;20449;-80
2022/08/01 05:55:03;;;;;;;9.30;8.50;;;20.40;99.90;;;;;;5084858;28;20445;-81
2022/08/01 05:57:31;;;;;;;8.50;7.10;;;20.30;99.90;;;;;;5081937;28;21010;-81
2022/08/01 05:59:58;;;;;;;8.37;7.57;;;20.40;99.90;;;;;;5081861;28;20449;-80
2022/08/01 06:02:25;;;;;;;8.20;7.50;;;20.50;99.90;;;;;;5081033;28;20459;-80
2022/08/01 06:04:51;;;;;;;8.53;7.83;;;20.50;99.90;;;;;;5080075;28;20502;-80
2022/08/01 06:07:18;;;;;;;7.50;6.80;;;20.60;99.90;;;;;;5104180;22;20566;-77
2022/08/01 06:09:45;;;;;;;7.07;6.47;;;20.60;99.90;;;;;;5093748;28;20891;-76
2022/08/01 06:12:11;;;;;;;10.40;6.80;;;20.60;99.90;;;;;;5093863;28;20440;-76
2022/08/01 06:14:39;;;;;;;10.80;7.80;;;20.80;99.90;;;;;;5094024;28;20449;-76
2022/08/01 06:17:06;;;;;;;7.73;6.90;;;20.80;99.90;;;;;;5093697;28;20479;-76
2022/08/01 06:19:33;;;;;;;6.77;6.13;;;20.90;99.90;;;;;;5093698;28;20486;-76
2022/08/01 06:21:59;;;;;;;7.67;7.00;;;20.80;99.90;;;;;;5093794;28;20799;-76
2022/08/01 06:24:26;;;;;;;7.10;6.40;;;20.70;99.90;;;;;;5093688;28;20455;-77
2022/08/01 06:26:53;;;;;;;7.73;6.93;;;20.80;99.90;;;;;;5093947;28;20933;-77
2022/08/01 06:29:19;;;;;;;8.13;7.43;;;20.90;99.90;;;;;;5093648;28;20448;-76
2022/08/01 06:31:48;;;;;;;9.27;8.10;;;20.90;99.90;;;;;;5093945;28;20444;-76
2022/08/01 06:34:15;;;;;;;8.37;7.57;;;20.80;99.90;;;;;;5093590;28;20443;-77
2022/08/01 06:36:41;;;;;;;7.97;7.17;;;20.60;99.90;;;;;;5093323;28;20564;-76
2022/08/01 06:39:08;;;;;;;8.30;7.50;;;20.60;99.90;;;;;;5093113;28;20943;-77
2022/08/01 06:41:35;;;;;;;10.67;7.40;;;20.50;99.90;;;;;;5093425;28;20455;-76
2022/08/01 06:44:04;;;;;;;9.87;7.47;;;20.30;99.90;;;;;;5093358;28;20450;-78
2022/08/01 06:46:30;;;;;;;8.57;7.73;;;20.10;99.90;;;;;;5093291;28;20468;-76
2022/08/01 06:48:58;;;;;;;9.50;8.70;;;20.10;99.90;;;;;;5093181;28;20444;-77
2022/08/01 06:51:25;;;;;;;14.97;13.50;;;20.00;99.90;;;;;;5093090;28;20455;-76
2022/08/01 06:53:53;;;;;;;11.17;9.03;;;20.00;99.90;;;;;;5093126;28;20459;-76
2022/08/01 06:56:20;;;;;;;8.80;8.00;;;20.10;99.90;;;;;;5093324;28;20832;-76
2022/08/01 06:58:47;;;;;;;7.13;6.53;;;20.20;99.90;;;;;;5093148;28;20536;-76
2022/08/01 07:01:14;;;;;;;7.07;6.47;;;20.20;99.90;;;;;;5093119;28;20612;-76
2022/08/01 07:03:40;;;;;;;7.87;7.20;;;20.20;99.90;;;;;;5093409;28;20566;-76
2022/08/01 07:06:09;;;;;;;6.27;5.77;;;20.30;99.90;;;;;;5092968;28;20471;-76
2022/08/01 07:08:36;;;;;;;6.60;6.00;;;20.30;99.90;;;;;;5092705;28;20448;-76
2022/08/01 07:11:03;;;;;;;6.67;5.97;;;20.40;99.90;;;;;;5093576;28;20798;-77
2022/08/01 07:13:30;;;;;;;10.00;5.77;;;20.40;99.90;;;;;;5093065;28;20535;-77
2022/08/01 07:15:57;;;;;;;6.07;5.57;;;20.50;99.90;;;;;;5094801;28;20990;-77
2022/08/01 07:18:24;;;;;;;6.20;5.73;;;20.60;99.90;;;;;;5096995;28;21006;-77
2022/08/01 07:20:51;;;;;;;5.73;5.17;;;20.70;99.90;;;;;;5100957;28;20440;-77
2022/08/01 07:23:19;;;;;;;5.37;4.97;;;20.80;99.90;;;;;;5098907;28;20452;-77
2022/08/01 07:25:46;;;;;;;5.67;5.17;;;20.90;99.90;;;;;;5092842;28;20464;-76
2022/08/01 07:28:12;;;;;;;5.37;4.97;;;20.90;99.90;;;;;;5092701;28;20530;-77
2022/08/01 07:30:41;;;;;;;5.97;5.47;;;20.90;99.90;;;;;;5093086;28;20458;-77
2022/08/01 07:33:09;;;;;;;6.70;5.03;;;20.90;99.90;;;;;;5098064;28;20479;-78
2022/08/01 07:35:37;;;;;;;4.67;4.30;;;20.50;99.90;;;;;;5099958;28;20444;-77
2022/08/01 07:38:04;;;;;;;5.20;4.67;;;20.70;99.90;;;;;;5097175;28;20524;-77
2022/08/01 07:40:32;;;;;;;5.80;5.30;;;20.70;99.90;;;;;;5098917;28;20447;-77
2022/08/01 07:42:59;;;;;;;5.97;5.47;;;20.60;99.90;;;;;;5096739;28;20947;-78
2022/08/01 07:45:26;;;;;;;5.10;4.70;;;20.60;99.90;;;;;;5096324;28;20444;-76
2022/08/01 07:47:53;;;;;;;4.50;4.10;;;20.70;99.90;;;;;;5099233;28;20497;-77
2022/08/01 07:50:20;;;;;;;4.63;4.33;;;20.60;99.90;;;;;;5097486;28;20440;-77
2022/08/01 07:52:46;;;;;;;4.00;3.70;;;20.70;99.90;;;;;;5096797;28;20542;-77
2022/08/01 07:55:14;;;;;;;3.97;3.67;;;20.80;99.90;;;;;;5097046;28;20452;-77
2022/08/01 07:57:42;;;;;;;4.73;4.20;;;20.80;99.90;;;;;;5101393;28;20489;-78
2022/08/01 08:00:09;;;;;;;4.53;4.20;;;20.80;99.90;;;;;;5098494;28;20454;-77
2022/08/01 08:02:36;;;;;;;3.90;3.70;;;20.90;99.90;;;;;;5098785;28;20450;-77
2022/08/01 08:05:03;;;;;;;4.07;3.77;;;21.00;99.90;;;;;;5098251;28;20444;-76
2022/08/01 08:07:30;;;;;;;5.57;4.93;;;21.00;99.90;;;;;;5097093;28;20464;-77
2022/08/01 08:09:57;;;;;;;4.73;4.33;;;20.90;99.90;;;;;;5099217;28;20446;-78
2022/08/01 08:12:24;;;;;;;4.80;3.70;;;20.90;99.90;;;;;;5097520;28;21019;-78
2022/08/01 08:14:52;;;;;;;4.50;4.17;;;20.90;99.90;;;;;;5099023;28;20451;-77
2022/08/01 08:17:18;;;;;;;4.07;3.77;;;20.80;99.90;;;;;;5103480;28;20486;-76
2022/08/01 08:19:45;;;;;;;4.73;4.40;;;20.80;99.90;;;;;;5101838;28;20957;-75
2022/08/01 08:22:12;;;;;;;5.17;4.80;;;20.90;99.90;;;;;;5104320;28;20458;-76
2022/08/01 08:24:39;;;;;;;4.40;4.00;;;20.90;99.90;;;;;;5105641;28;20458;-76
2022/08/01 08:27:07;;;;;;;5.10;4.60;;;20.80;99.90;;;;;;5104822;28;20977;-77
2022/08/01 08:29:34;;;;;;;5.83;4.70;;;20.70;99.90;;;;;;5100931;28;20557;-76
2022/08/01 08:32:02;;;;;;;5.47;5.03;;;20.90;99.90;;;;;;5100123;28;20444;-77
2022/08/01 08:34:30;;;;;;;5.90;4.90;;;20.70;99.90;;;;;;5101333;28;20451;-77
2022/08/01 08:36:58;;;;;;;5.70;5.20;;;20.70;99.90;;;;;;5096708;28;20463;-76
2022/08/01 08:39:24;;;;;;;8.00;5.83;;;20.70;99.90;;;;;;5098216;28;20459;-76
2022/08/01 08:41:51;;;;;;;5.43;5.03;;;20.80;99.90;;;;;;5099404;28;20813;-76
2022/08/01 08:44:19;;;;;;;5.47;4.97;;;20.80;80.90;;;;;;5094060;28;20497;-76
2022/08/01 08:46:48;;;;;;;8.70;5.50;;;20.80;27.90;;;;;;5096004;28;20467;-76
2022/08/01 08:49:20;;;;;;;5.40;4.90;;;20.80;35.50;;;;;;5095500;28;20436;-77
2022/08/01 08:51:49;;;;;;;6.60;5.83;;;20.90;28.50;;;;;;5095786;28;20481;-77
2022/08/01 08:54:17;;;;;;;5.37;4.87;;;21.00;9.70;;;;;;5096571;28;20448;-77
2022/08/01 08:56:46;;;;;;;5.23;4.73;;;21.20;1.00;;;;;;5095470;28;20537;-77
2022/08/01 08:59:14;;;;;;;5.70;5.20;;;21.40;1.00;;;;;;5096564;28;20479;-77
2022/08/01 09:01:41;;;;;;;5.93;4.67;;;21.20;1.00;;;;;;5096857;28;20455;-77
2022/08/01 09:04:08;;;;;;;6.30;4.47;;;21.60;1.00;;;;;;5095856;28;20446;-77
2022/08/01 09:06:36;;;;;;;3.33;3.13;;;21.60;1.00;;;;;;5095541;28;20559;-77
2022/08/01 09:09:04;;;;;;;4.30;3.80;;;21.50;1.00;;;;;;5096424;28;20463;-77
2022/08/01 09:11:31;;;;;;;5.03;3.07;;;21.20;1.00;;;;;;5095971;28;20448;-78
2022/08/01 09:14:09;;;;;;;3.77;3.40;;;21.30;1.00;;;;;;5094897;28;20497;-77
2022/08/01 09:16:38;;;;;;;3.97;3.67;;;21.50;1.00;;;;;;5095661;28;20464;-77
2022/08/01 09:19:10;;;;;;;2.67;2.47;;;21.60;1.00;;;;;;5095543;28;20812;-78
2022/08/01 09:21:38;;;;;;;4.60;1.97;;;21.60;1.00;;;;;;5094914;28;20448;-78
2022/08/01 09:24:13;;;;;;;6.00;2.10;;;21.40;1.00;;;;;;5096765;28;20451;-77
2022/08/01 09:26:40;;;;;;;3.00;2.53;;;21.30;1.00;;;;;;5097880;28;20468;-78
2022/08/01 09:29:09;;;;;;;2.50;2.30;;;21.20;1.00;;;;;;5096488;28;20546;-77
2022/08/01 09:31:41;;;;;;;3.33;2.57;;;21.20;1.00;;;;;;5097134;28;20451;-78
2022/08/01 09:34:09;;;;;;;2.90;2.10;;;21.20;1.00;;;;;;5097063;28;20515;-77
2022/08/01 09:36:58;;;;;;;2.13;2.00;;;21.30;1.00;;;;;;5095687;28;20468;-77
2022/08/01 09:39:26;;;;;;;2.73;2.20;;;21.40;1.00;;;;;;5094854;28;20471;-78
2022/08/01 09:41:53;;;;;;;3.00;2.80;;;21.50;1.00;;;;;;5094491;28;20447;-76
2022/08/01 09:44:21;;;;;;;2.53;2.20;;;21.50;1.00;;;;;;5094607;28;20931;-77
2022/08/01 09:46:52;;;;;;;3.00;1.80;;;21.60;1.00;;;;;;5095764;28;20962;-76
2022/08/01 09:49:30;;;;;;;2.30;2.20;;;21.70;1.00;;;;;;5095264;28;20440;-76
2022/08/01 09:51:59;;;;;;;3.30;3.00;;;21.80;1.00;;;;;;5095196;28;20448;-76
2022/08/01 09:54:31;;;;;;;3.00;2.80;;;21.90;1.00;;;;;;5095013;28;20451;-77
2022/08/01 09:57:10;;;;;;;2.20;2.10;;;22.10;99.90;;;;;;5095533;28;20471;-76
2022/08/01 09:59:41;;;;;;;3.50;3.30;;;22.10;99.90;;;;;;5095883;28;20475;-77
2022/08/01 10:02:10;;;;;;;3.63;2.67;;;22.00;99.90;;;;;;5096263;28;20428;-77
2022/08/01 10:04:37;;;;;;;2.60;2.40;;;22.00;99.90;;;;;;5095023;28;20454;-77
2022/08/01 10:07:08;;;;;;;3.33;3.03;;;21.90;99.90;;;;;;5095536;28;20566;-77
2022/08/01 10:09:36;;;;;;;3.47;2.70;;;21.80;99.90;;;;;;5094957;28;20927;-77
2022/08/01 10:12:04;;;;;;;3.00;2.80;;;21.80;1.00;;;;;;5095385;28;20451;-78
2022/08/01 10:14:32;;;;;;;4.03;3.10;;;21.80;1.00;;;;;;5095470;28;20440;-77
2022/08/01 10:17:01;;;;;;;3.20;2.90;;;21.60;1.00;;;;;;5095796;28;20460;-78
2022/08/01 10:19:29;;;;;;;2.83;2.63;;;21.70;1.00;;;;;;5095184;28;20475;-77
2022/08/01 10:21:58;;;;;;;2.83;2.33;;;21.80;1.00;;;;;;5095314;28;20444;-78
2022/08/01 10:24:29;;;;;;;2.70;2.47;;;21.80;1.00;;;;;;5097864;28;20513;-78
2022/08/01 10:27:04;;;;;;;2.37;2.23;;;21.90;99.90;;;;;;5096823;28;20502;-77
2022/08/01 10:29:36;;;;;;;2.40;2.10;;;22.00;99.90;;;;;;5095636;28;20438;-77
2022/08/01 10:32:05;;;;;;;3.20;2.20;;;22.00;41.80;;;;;;5094209;28;20436;-78
2022/08/01 10:34:34;;;;;;;2.73;2.03;;;22.00;73.00;;;;;;5097040;28;20443;-77
2022/08/01 10:37:02;;;;;;;1.90;1.80;;;22.10;1.00;;;;;;5095364;28;20911;-78
2022/08/01 10:39:31;;;;;;;2.67;2.47;;;22.10;99.90;;;;;;5095176;28;21012;-77
2022/08/01 10:41:59;;;;;;;4.40;2.43;;;22.00;99.90;;;;;;5094295;28;20447;-77
2022/08/01 10:44:27;;;;;;;2.37;2.17;;;22.00;1.00;;;;;;5093657;28;20447;-77
2022/08/01 10:47:00;;;;;;;2.00;1.90;;;22.00;1.00;;;;;;5094024;28;20476;-77
2022/08/01 10:49:31;;;;;;;4.10;3.33;;;22.00;99.90;;;;;;5094010;28;20428;-77
2022/08/01 10:51:58;;;;;;;3.40;2.83;;;22.00;90.70;;;;;;5095346;28;20428;-77
2022/08/01 10:54:26;;;;;;;3.00;2.70;;;21.70;99.90;;;;;;5095147;28;20444;-77
2022/08/01 10:56:56;;;;;;;2.27;2.17;;;21.80;99.90;;;;;;5094375;28;20963;-78
2022/08/01 10:59:25;;;;;;;4.60;2.50;;;21.90;99.90;;;;;;5094198;28;20530;-77
2022/08/01 11:01:59;;;;;;;2.50;2.30;;;22.00;99.90;;;;;;5093767;28;20455;-76
2022/08/01 11:04:36;;;;;;;3.30;3.00;;;22.10;1.00;;;;;;5094030;28;20819;-77
2022/08/01 11:07:07;;;;;;;3.27;3.07;;;22.10;1.00;;;;;;5093121;28;20889;-77
2022/08/01 11:09:42;;;;;;;3.70;3.27;;;22.10;80.60;;;;;;5094183;28;20451;-78
2022/08/01 11:12:13;;;;;;;3.10;2.50;;;22.20;1.00;;;;;;5094012;28;20447;-77
2022/08/01 11:15:24;;;;;;;2.00;1.90;;;22.20;99.90;;;;;;5094705;28;20448;-76
2022/08/01 11:17:51;;;;;;;3.30;2.60;;;22.20;1.00;;;;;;5093279;28;20858;-77
2022/08/01 11:20:20;;;;;;;3.20;2.60;;;22.20;99.90;;;;;;5093290;28;20444;-76
2022/08/01 11:23:23;;;;;;;2.80;2.60;;;22.10;99.90;;;;;;5093472;28;20448;-76
2022/08/01 11:26:11;;;;;;;3.70;3.17;;;22.40;1.00;;;;;;5093204;28;20467;-77
2022/08/01 11:28:39;;;;;;;1.90;1.80;;;22.50;99.90;;;;;;5093092;28;20431;-77
2022/08/01 11:31:29;;;;;;;3.37;1.77;;;22.50;99.90;;;;;;5094025;28;20540;-78
2022/08/01 11:33:56;;;;;;;4.40;2.30;;;22.40;99.90;;;;;;5095887;28;20452;-77
2022/08/01 11:36:23;;;;;;;1.83;1.73;;;22.30;1.00;;;;;;5097856;28;20471;-76
2022/08/01 11:39:14;;;;;;;3.27;2.97;;;22.10;99.90;;;;;;5100687;28;20476;-77
2022/08/01 11:41:42;;;;;;;2.60;2.20;;;22.10;99.90;;;;;;5097378;28;20519;-77
2022/08/01 11:44:13;;;;;;;2.27;2.17;;;21.90;99.90;;;;;;5096479;28;20457;-77
2022/08/01 11:47:06;;;;;;;5.83;5.33;;;21.70;99.90;;;;;;5095560;28;20471;-77
2022/08/01 11:49:45;;;;;;;2.00;1.90;;;21.70;99.90;;;;;;5094668;28;20426;-77
2022/08/01 11:52:14;;;;;;;2.50;2.20;;;21.70;1.00;;;;;;5093822;28;20424;-77
2022/08/01 11:54:43;;;;;;;5.37;4.87;;;21.60;1.00;;;;;;5092921;28;20530;-76
2022/08/01 11:57:14;;;;;;;2.20;2.10;;;21.50;1.00;;;;;;5092909;28;20958;-77
2022/08/01 11:59:45;;;;;;;4.20;2.20;;;21.30;1.00;;;;;;5094082;28;20474;-77
2022/08/01 12:02:18;;;;;;;3.10;1.97;;;21.30;1.00;;;;;;5093286;28;20454;-76
2022/08/01 12:04:46;;;;;;;3.50;3.13;;;21.20;1.00;;;;;;5092592;28;20447;-77
2022/08/01 12:07:22;;;;;;;2.03;1.93;;;21.30;1.00;;;;;;5134409;22;20487;-80
2022/08/01 12:09:58;;;;;;;3.53;2.37;;;21.40;1.00;;;;;;5095864;28;20432;-80
2022/08/01 12:12:25;;;;;;;2.20;1.60;;;21.50;1.00;;;;;;5096351;28;20448;-80
2022/08/01 12:14:58;;;;;;;2.00;1.90;;;21.70;1.00;;;;;;5096171;28;20503;-79
2022/08/01 12:17:30;;;;;;;3.57;1.80;;;21.90;99.90;;;;;;5099398;28;20456;-79
2022/08/01 12:19:57;;;;;;;2.30;2.20;;;22.00;1.00;;;;;;5102584;28;21001;-79
2022/08/01 12:22:25;;;;;;;2.17;1.63;;;22.20;1.00;;;;;;5103609;28;20951;-78
2022/08/01 12:24:52;;;;;;;1.93;1.83;;;22.40;1.00;;;;;;5102914;28;20891;-79
2022/08/01 12:27:28;;;;;;;1.87;1.77;;;22.50;99.90;;;;;;5102284;28;20475;-80
2022/08/01 12:29:57;;;;;;;3.40;2.10;;;22.40;99.90;;;;;;5101853;28;20486;-79
2022/08/01 12:32:27;;;;;;;3.60;1.50;;;22.70;1.00;;;;;;5102494;28;20539;-80
2022/08/01 12:34:55;;;;;;;1.53;1.40;;;22.60;1.00;;;;;;5102344;28;20535;-79
2022/08/01 12:37:22;;;;;;;1.67;1.57;;;22.90;44.80;;;;;;5100419;28;20563;-80
2022/08/01 12:39:49;;;;;;;1.50;1.40;;;23.10;1.00;;;;;;5100333;28;20484;-79
2022/08/01 12:42:16;;;;;;;1.80;1.70;;;23.20;99.90;;;;;;5100572;28;20539;-81
2022/08/01 12:44:45;;;;;;;1.90;1.80;;;23.30;99.90;;;;;;5099894;28;20452;-78
2022/08/01 12:47:15;;;;;;;1.13;1.13;;;23.50;99.90;;;;;;5099233;28;20900;-80
2022/08/01 12:49:44;;;;;;;3.50;1.47;;;23.60;1.00;;;;;;5098806;28;20549;-80
2022/08/01 12:52:12;;;;;;;3.77;1.93;;;23.60;1.00;;;;;;5099238;28;20448;-80
2022/08/01 12:55:10;;;;;;;1.97;1.63;;;23.60;1.00;;;;;;5098768;28;20812;-81
2022/08/01 12:57:39;;;;;;;6.53;1.67;;;23.60;14.40;;;;;;5098606;28;20472;-81
2022/08/01 13:00:08;;;;;;;2.20;1.87;;;23.70;1.00;;;;;;5099699;28;21024;-82
2022/08/01 13:02:37;;;;;;;2.20;2.10;;;23.80;1.00;;;;;;5101586;28;20455;-78
2022/08/01 13:05:04;;;;;;;2.37;2.17;;;23.80;1.00;;;;;;5102146;28;20454;-80
2022/08/01 13:07:45;;;;;;;2.03;1.93;;;23.50;1.00;;;;;;5099854;28;21002;-79